sensor_id;sensor_type;location;lat;lon;timestamp;pressure;altitude;pressure_sealevel;temperature;humidity
32789;BME280;19141;48.980;8.410;2023-03-01T05:22:32;100982.59;;;-1.79;90.33
32789;BME280;19141;48.980;8.410;2023-03-01T05:24:57;100991.19;;;-1.77;90.66
32789;BME280;19141;48.980;8.410;2023-03-01T05:27:23;100989.38;;;-1.75;90.14
32789;BME280;19141;48.980;8.410;2023-03-01T05:29:48;100988.38;;;-1.73;90.17
32789;BME280;19141;48.980;8.410;2023-03-01T05:32:13;100988.38;;;-1.73;90.00
32789;BME280;19141;48.980;8.410;2023-03-01T05:34:41;100989.22;;;-1.72;90.17
32789;BME280;19141;48.980;8.410;2023-03-01T05:37:06;100990.91;;;-1.71;90.26
32789;BME280;19141;48.980;8.410;2023-03-01T05:39:33;100989.22;;;-1.72;90.54
32789;BME280;19141;48.980;8.410;2023-03-01T05:41:59;100983.22;;;-1.74;90.76
32789;BME280;19141;48.980;8.410;2023-03-01T05:44:25;100990.81;;;-1.70;90.91
32789;BME280;19141;48.980;8.410;2023-03-01T05:46:51;100991.91;;;-1.74;90.31
32789;BME280;19141;48.980;8.410;2023-03-01T05:49:16;100984.00;;;-1.72;90.89
32789;BME280;19141;48.980;8.410;2023-03-01T05:51:46;100979.69;;;-1.73;90.60
32789;BME280;19141;48.980;8.410;2023-03-01T05:54:12;100987.53;;;-1.73;90.60
32789;BME280;19141;48.980;8.410;2023-03-01T05:56:37;100990.13;;;-1.73;90.66
32789;BME280;19141;48.980;8.410;2023-03-01T05:59:04;100978.09;;;-1.76;90.40
32789;BME280;19141;48.980;8.410;2023-03-01T06:01:33;100979.81;;;-1.76;90.08
32789;BME280;19141;48.980;8.410;2023-03-01T06:03:59;100983.31;;;-1.76;90.99
32789;BME280;19141;48.980;8.410;2023-03-01T06:06:24;100986.50;;;-1.71;91.08
32789;BME280;19141;48.980;8.410;2023-03-01T06:08:51;100989.06;;;-1.69;90.78
32789;BME280;19141;48.980;8.410;2023-03-01T06:11:17;100992.03;;;-1.77;90.92
32789;BME280;19141;48.980;8.410;2023-03-01T06:13:43;100987.66;;;-1.76;90.80
32789;BME280;19141;48.980;8.410;2023-03-01T06:16:09;100975.69;;;-1.80;90.98
32789;BME280;19141;48.980;8.410;2023-03-01T06:18:36;100987.00;;;-1.80;90.93
32789;BME280;19141;48.980;8.410;2023-03-01T06:21:01;100986.78;;;-1.75;90.29
32789;BME280;19141;48.980;8.410;2023-03-01T06:23:27;100994.59;;;-1.75;90.62
32789;BME280;19141;48.980;8.410;2023-03-01T06:25:52;100983.22;;;-1.74;90.14
32789;BME280;19141;48.980;8.410;2023-03-01T06:28:18;100989.97;;;-1.70;90.47
32789;BME280;19141;48.980;8.410;2023-03-01T06:30:44;100983.31;;;-1.76;90.87
32789;BME280;19141;48.980;8.410;2023-03-01T06:33:09;100989.44;;;-1.77;90.72
32789;BME280;19141;48.980;8.410;2023-03-01T06:35:35;100990.28;;;-1.76;90.13
32789;BME280;19141;48.980;8.410;2023-03-01T06:38:02;100992.00;;;-1.75;90.74
32789;BME280;19141;48.980;8.410;2023-03-01T06:40:28;100995.19;;;-1.70;90.40
32789;BME280;19141;48.980;8.410;2023-03-01T06:42:54;100993.59;;;-1.73;90.98
32789;BME280;19141;48.980;8.410;2023-03-01T06:45:20;100977.91;;;-1.73;91.01
32789;BME280;19141;48.980;8.410;2023-03-01T06:47:46;100980.44;;;-1.71;91.18
32789;BME280;19141;48.980;8.410;2023-03-01T06:50:13;100985.53;;;-1.68;90.94
32789;BME280;19141;48.980;8.410;2023-03-01T06:52:38;100977.63;;;-1.67;91.04
32789;BME280;19141;48.980;8.410;2023-03-01T06:55:05;100981.78;;;-1.62;90.25
32789;BME280;19141;48.980;8.410;2023-03-01T06:57:31;100992.66;;;-1.54;89.32
32789;BME280;19141;48.980;8.410;2023-03-01T06:59:56;100986.22;;;-1.47;89.17
32789;BME280;19141;48.980;8.410;2023-03-01T07:02:22;100980.66;;;-1.41;89.57
32789;BME280;19141;48.980;8.410;2023-03-01T07:04:50;100977.75;;;-1.35;88.44
32789;BME280;19141;48.980;8.410;2023-03-01T07:07:16;100984.03;;;-1.22;87.74
32789;BME280;19141;48.980;8.410;2023-03-01T07:09:46;100968.00;;;-1.16;88.43
32789;BME280;19141;48.980;8.410;2023-03-01T07:12:11;100967.09;;;-0.99;87.07
32789;BME280;19141;48.980;8.410;2023-03-01T07:14:37;100967.38;;;-0.88;86.06
32789;BME280;19141;48.980;8.410;2023-03-01T07:17:02;100959.72;;;-0.75;84.72
32789;BME280;19141;48.980;8.410;2023-03-01T07:19:27;100955.69;;;-0.65;84.89
32789;BME280;19141;48.980;8.410;2023-03-01T07:21:53;100954.38;;;-0.73;85.12
32789;BME280;19141;48.980;8.410;2023-03-01T07:24:19;100949.00;;;-0.55;84.75
32789;BME280;19141;48.980;8.410;2023-03-01T07:26:48;100944.94;;;-0.44;83.35
32789;BME280;19141;48.980;8.410;2023-03-01T07:29:13;100959.19;;;-0.34;82.37
32789;BME280;19141;48.980;8.410;2023-03-01T07:31:39;100948.97;;;-0.23;81.31
32789;BME280;19141;48.980;8.410;2023-03-01T07:34:04;100957.81;;;-0.10;80.77
32789;BME280;19141;48.980;8.410;2023-03-01T07:36:30;100943.41;;;-0.03;79.80
32789;BME280;19141;48.980;8.410;2023-03-01T07:38:55;100944.09;;;0.01;79.59
32789;BME280;19141;48.980;8.410;2023-03-01T07:41:21;100950.03;;;0.19;79.06
32789;BME280;19141;48.980;8.410;2023-03-01T07:43:46;100955.47;;;0.16;78.55
32789;BME280;19141;48.980;8.410;2023-03-01T07:46:12;100934.00;;;0.09;78.98
32789;BME280;19141;48.980;8.410;2023-03-01T07:48:37;100945.75;;;0.32;77.81
32789;BME280;19141;48.980;8.410;2023-03-01T07:51:05;100940.44;;;0.34;77.19
32789;BME280;19141;48.980;8.410;2023-03-01T07:53:31;100935.22;;;0.48;76.81
32789;BME280;19141;48.980;8.410;2023-03-01T07:56:10;100942.25;;;0.62;76.37
32789;BME280;19141;48.980;8.410;2023-03-01T07:58:41;100933.91;;;0.69;75.71
32789;BME280;19141;48.980;8.410;2023-03-01T08:01:14;100930.66;;;0.66;75.92
32789;BME280;19141;48.980;8.410;2023-03-01T08:03:40;100937.28;;;0.86;74.78
32789;BME280;19141;48.980;8.410;2023-03-01T08:06:07;100931.75;;;0.90;74.24
32789;BME280;19141;48.980;8.410;2023-03-01T08:08:34;100931.56;;;0.93;74.30
32789;BME280;19141;48.980;8.410;2023-03-01T08:11:01;100930.81;;;1.05;73.53
32789;BME280;19141;48.980;8.410;2023-03-01T08:13:27;100926.41;;;1.06;73.23
32789;BME280;19141;48.980;8.410;2023-03-01T08:15:53;100925.44;;;1.21;72.61
32789;BME280;19141;48.980;8.410;2023-03-01T08:18:19;100923.16;;;1.29;71.96
32789;BME280;19141;48.980;8.410;2023-03-01T08:20:45;100916.38;;;1.40;71.29
32789;BME280;19141;48.980;8.410;2023-03-01T08:23:11;100919.13;;;1.24;71.82
32789;BME280;19141;48.980;8.410;2023-03-01T08:25:37;100913.97;;;1.22;71.49
32789;BME280;19141;48.980;8.410;2023-03-01T08:28:03;100910.34;;;1.25;71.72
32789;BME280;19141;48.980;8.410;2023-03-01T08:30:29;100910.34;;;1.52;70.86
32789;BME280;19141;48.980;8.410;2023-03-01T08:32:55;100904.09;;;1.67;69.78
32789;BME280;19141;48.980;8.410;2023-03-01T08:35:20;100908.72;;;1.63;69.83
32789;BME280;19141;48.980;8.410;2023-03-01T08:37:46;100910.56;;;1.88;69.14
32789;BME280;19141;48.980;8.410;2023-03-01T08:40:11;100909.56;;;2.04;67.10
32789;BME280;19141;48.980;8.410;2023-03-01T08:42:39;100912.41;;;2.13;66.55
32789;BME280;19141;48.980;8.410;2023-03-01T08:45:05;100909.88;;;2.12;66.94
32789;BME280;19141;48.980;8.410;2023-03-01T08:47:31;100913.16;;;2.41;65.86
32789;BME280;19141;48.980;8.410;2023-03-01T08:49:59;100904.34;;;2.42;65.85
32789;BME280;19141;48.980;8.410;2023-03-01T08:52:24;100907.28;;;2.37;64.85
32789;BME280;19141;48.980;8.410;2023-03-01T08:54:49;100900.13;;;2.65;65.10
32789;BME280;19141;48.980;8.410;2023-03-01T08:57:15;100906.44;;;2.75;63.56
32789;BME280;19141;48.980;8.410;2023-03-01T08:59:40;100896.34;;;2.69;63.32
32789;BME280;19141;48.980;8.410;2023-03-01T09:02:12;100892.91;;;2.92;62.37
32789;BME280;19141;48.980;8.410;2023-03-01T09:04:38;100897.19;;;3.06;62.77
32789;BME280;19141;48.980;8.410;2023-03-01T09:07:03;100887.00;;;3.02;62.70
32789;BME280;19141;48.980;8.410;2023-03-01T09:09:29;100878.34;;;2.76;62.69
32789;BME280;19141;48.980;8.410;2023-03-01T09:11:54;100887.75;;;2.91;62.08
32789;BME280;19141;48.980;8.410;2023-03-01T09:14:20;100875.25;;;2.94;62.96
32789;BME280;19141;48.980;8.410;2023-03-01T09:16:45;100871.81;;;3.05;61.92
32789;BME280;19141;48.980;8.410;2023-03-01T09:19:11;100871.63;;;3.08;62.34
32789;BME280;19141;48.980;8.410;2023-03-01T09:21:37;100876.94;;;3.19;61.87
32789;BME280;19141;48.980;8.410;2023-03-01T09:24:02;100873.34;;;2.96;61.25
32789;BME280;19141;48.980;8.410;2023-03-01T09:26:28;100874.66;;;3.15;62.15
32789;BME280;19141;48.980;8.410;2023-03-01T09:28:55;100875.69;;;3.49;61.43
32789;BME280;19141;48.980;8.410;2023-03-01T09:31:22;100875.75;;;3.71;59.70
32789;BME280;19141;48.980;8.410;2023-03-01T09:33:50;100880.28;;;3.93;59.29
32789;BME280;19141;48.980;8.410;2023-03-01T09:36:19;100876.66;;;3.83;58.97
32789;BME280;19141;48.980;8.410;2023-03-01T09:38:46;100866.94;;;3.72;59.66
32789;BME280;19141;48.980;8.410;2023-03-01T09:44:10;100857.91;;;3.99;58.22
32789;BME280;19141;48.980;8.410;2023-03-01T09:46:42;100855.88;;;4.14;58.33
32789;BME280;19141;48.980;8.410;2023-03-01T09:49:17;100859.50;;;4.35;57.42
32789;BME280;19141;48.980;8.410;2023-03-01T09:51:54;100855.81;;;4.38;57.50
32789;BME280;19141;48.980;8.410;2023-03-01T09:54:20;100850.06;;;4.44;56.90
32789;BME280;19141;48.980;8.410;2023-03-01T10:02:51;100834.63;;;5.16;54.84
32789;BME280;19141;48.980;8.410;2023-03-01T10:08:24;100833.41;;;5.52;54.75
32789;BME280;19141;48.980;8.410;2023-03-01T10:10:51;100819.75;;;5.47;53.26
32789;BME280;19141;48.980;8.410;2023-03-01T10:13:26;100828.38;;;5.81;52.50
32789;BME280;19141;48.980;8.410;2023-03-01T10:15:56;100817.81;;;6.02;53.08
32789;BME280;19141;48.980;8.410;2023-03-01T10:18:26;100814.94;;;6.36;51.04
32789;BME280;19141;48.980;8.410;2023-03-01T10:23:23;100814.59;;;7.00;49.35
32789;BME280;19141;48.980;8.410;2023-03-01T10:26:04;100803.75;;;7.22;49.21
32789;BME280;19141;48.980;8.410;2023-03-01T10:31:12;100804.16;;;7.85;46.90
32789;BME280;19141;48.980;8.410;2023-03-01T10:33:38;100799.28;;;8.28;45.76
32789;BME280;19141;48.980;8.410;2023-03-01T10:36:07;100802.81;;;8.65;45.67
32789;BME280;19141;48.980;8.410;2023-03-01T10:38:49;100787.47;;;9.05;45.10
32789;BME280;19141;48.980;8.410;2023-03-01T10:41:17;100784.53;;;8.62;44.62
32789;BME280;19141;48.980;8.410;2023-03-01T10:43:48;100795.56;;;9.13;43.11
32789;BME280;19141;48.980;8.410;2023-03-01T10:46:25;100803.06;;;8.72;44.38
32789;BME280;19141;48.980;8.410;2023-03-01T10:49:18;100795.53;;;8.95;43.95
32789;BME280;19141;48.980;8.410;2023-03-01T10:51:46;100786.66;;;9.22;44.31
32789;BME280;19141;48.980;8.410;2023-03-01T10:54:25;100784.56;;;10.13;41.62
32789;BME280;19141;48.980;8.410;2023-03-01T10:56:58;100772.53;;;10.09;41.24
32789;BME280;19141;48.980;8.410;2023-03-01T10:59:32;100773.66;;;9.98;41.63
32789;BME280;19141;48.980;8.410;2023-03-01T11:02:20;100782.75;;;10.40;40.76
32789;BME280;19141;48.980;8.410;2023-03-01T11:07:27;100761.69;;;10.63;40.21
32789;BME280;19141;48.980;8.410;2023-03-01T11:09:52;100755.16;;;9.97;41.23
32789;BME280;19141;48.980;8.410;2023-03-01T11:12:18;100753.91;;;10.09;40.67
32789;BME280;19141;48.980;8.410;2023-03-01T11:14:51;100765.28;;;9.67;41.83
32789;BME280;19141;48.980;8.410;2023-03-01T11:17:36;100754.00;;;10.51;40.25
32789;BME280;19141;48.980;8.410;2023-03-01T11:22:49;100738.28;;;10.82;39.30
32789;BME280;19141;48.980;8.410;2023-03-01T11:25:19;100732.97;;;11.07;39.45
32789;BME280;19141;48.980;8.410;2023-03-01T11:27:47;100725.16;;;10.97;39.00
32789;BME280;19141;48.980;8.410;2023-03-01T11:32:50;100730.13;;;10.76;39.74
32789;BME280;19141;48.980;8.410;2023-03-01T11:35:21;100717.66;;;10.42;40.32
32789;BME280;19141;48.980;8.410;2023-03-01T11:40:34;100696.50;;;11.56;38.10
32789;BME280;19141;48.980;8.410;2023-03-01T11:49:16;100682.59;;;11.77;38.10
32789;BME280;19141;48.980;8.410;2023-03-01T11:52:19;100683.16;;;11.48;37.54
32789;BME280;19141;48.980;8.410;2023-03-01T11:55:20;100676.78;;;11.90;37.48
32789;BME280;19141;48.980;8.410;2023-03-01T11:57:58;100680.91;;;11.92;37.13
32789;BME280;19141;48.980;8.410;2023-03-01T12:00:54;100675.91;;;12.68;35.97
32789;BME280;19141;48.980;8.410;2023-03-01T12:25:22;100627.53;;;12.32;36.47
32789;BME280;19141;48.980;8.410;2023-03-01T12:35:29;100627.56;;;12.77;35.66
32789;BME280;19141;48.980;8.410;2023-03-01T12:38:25;100619.66;;;12.84;35.08
32789;BME280;19141;48.980;8.410;2023-03-01T12:44:01;100605.63;;;12.05;36.31
32789;BME280;19141;48.980;8.410;2023-03-01T12:50:01;100607.38;;;12.98;35.12
32789;BME280;19141;48.980;8.410;2023-03-01T12:52:32;100609.22;;;12.74;35.34
32789;BME280;19141;48.980;8.410;2023-03-01T12:55:01;100603.69;;;12.99;34.97
32789;BME280;19141;48.980;8.410;2023-03-01T12:57:34;100589.47;;;12.30;36.54
32789;BME280;19141;48.980;8.410;2023-03-01T13:02:58;100584.50;;;12.49;36.12
32789;BME280;19141;48.980;8.410;2023-03-01T13:05:30;100594.72;;;13.29;35.03
32789;BME280;19141;48.980;8.410;2023-03-01T13:08:23;100588.53;;;13.29;34.68
32789;BME280;19141;48.980;8.410;2023-03-01T13:10:58;100588.38;;;14.04;33.47
32789;BME280;19141;48.980;8.410;2023-03-01T13:13:26;100580.75;;;12.82;35.57
32789;BME280;19141;48.980;8.410;2023-03-01T13:15:52;100582.91;;;12.63;36.43
32789;BME280;19141;48.980;8.410;2023-03-01T13:20:47;100569.50;;;12.71;35.69
32789;BME280;19141;48.980;8.410;2023-03-01T13:31:03;100559.59;;;12.03;36.14
32789;BME280;19141;48.980;8.410;2023-03-01T13:35:58;100544.63;;;12.48;35.96
32789;BME280;19141;48.980;8.410;2023-03-01T13:41:07;100541.22;;;12.08;36.82
32789;BME280;19141;48.980;8.410;2023-03-01T13:43:43;100532.25;;;12.01;36.98
32789;BME280;19141;48.980;8.410;2023-03-01T13:46:14;100535.03;;;11.60;37.96
32789;BME280;19141;48.980;8.410;2023-03-01T13:48:45;100531.84;;;11.26;38.15
32789;BME280;19141;48.980;8.410;2023-03-01T13:51:11;100530.72;;;10.87;39.01
32789;BME280;19141;48.980;8.410;2023-03-01T13:53:43;100527.25;;;10.46;39.73
32789;BME280;19141;48.980;8.410;2023-03-01T13:56:19;100538.56;;;10.48;39.83
32789;BME280;19141;48.980;8.410;2023-03-01T13:58:54;100540.63;;;10.04;40.80
32789;BME280;19141;48.980;8.410;2023-03-01T14:01:30;100533.66;;;9.61;41.65
32789;BME280;19141;48.980;8.410;2023-03-01T14:03:56;100533.94;;;8.89;42.83
32789;BME280;19141;48.980;8.410;2023-03-01T14:06:28;100524.75;;;9.36;42.57
32789;BME280;19141;48.980;8.410;2023-03-01T14:17:58;100536.69;;;9.06;43.04
32789;BME280;19141;48.980;8.410;2023-03-01T14:20:30;100515.38;;;9.23;42.85
32789;BME280;19141;48.980;8.410;2023-03-01T14:22:59;100520.91;;;9.38;42.51
32789;BME280;19141;48.980;8.410;2023-03-01T14:25:27;100526.53;;;9.27;43.12
32789;BME280;19141;48.980;8.410;2023-03-01T14:28:14;100523.75;;;9.37;42.88
32789;BME280;19141;48.980;8.410;2023-03-01T14:30:43;100514.53;;;9.23;43.26
32789;BME280;19141;48.980;8.410;2023-03-01T14:35:55;100500.34;;;8.80;44.05
32789;BME280;19141;48.980;8.410;2023-03-01T14:38:27;100517.97;;;8.63;44.44
32789;BME280;19141;48.980;8.410;2023-03-01T14:40:57;100516.63;;;8.85;44.08
32789;BME280;19141;48.980;8.410;2023-03-01T14:43:23;100513.38;;;8.74;43.75
32789;BME280;19141;48.980;8.410;2023-03-01T14:45:51;100510.41;;;8.51;44.42
32789;BME280;19141;48.980;8.410;2023-03-01T14:48:17;100513.38;;;8.74;44.06
32789;BME280;19141;48.980;8.410;2023-03-01T14:50:44;100522.44;;;8.81;44.38
32789;BME280;19141;48.980;8.410;2023-03-01T14:53:22;100517.59;;;8.58;44.51
32789;BME280;19141;48.980;8.410;2023-03-01T14:55:52;100521.09;;;8.41;44.57
32789;BME280;19141;48.980;8.410;2023-03-01T14:58:21;100523.25;;;8.10;45.49
32789;BME280;19141;48.980;8.410;2023-03-01T15:00:52;100517.44;;;8.24;45.30
32789;BME280;19141;48.980;8.410;2023-03-01T15:05:50;100521.13;;;8.13;45.74
32789;BME280;19141;48.980;8.410;2023-03-01T15:08:23;100537.28;;;8.20;45.72
32789;BME280;19141;48.980;8.410;2023-03-01T15:11:15;100535.78;;;8.18;45.88
32789;BME280;19141;48.980;8.410;2023-03-01T15:13:42;100522.84;;;7.87;45.96
32789;BME280;19141;48.980;8.410;2023-03-01T15:16:14;100535.09;;;8.15;45.75
32789;BME280;19141;48.980;8.410;2023-03-01T15:18:46;100528.25;;;8.13;45.74
32789;BME280;19141;48.980;8.410;2023-03-01T15:23:48;100548.22;;;8.17;46.19
32789;BME280;19141;48.980;8.410;2023-03-01T15:26:26;100558.00;;;8.16;45.82
32789;BME280;19141;48.980;8.410;2023-03-01T15:28:54;100542.63;;;7.93;46.35
32789;BME280;19141;48.980;8.410;2023-03-01T15:31:28;100549.84;;;8.00;46.18
32789;BME280;19141;48.980;8.410;2023-03-01T15:34:21;100549.00;;;8.00;46.38
32789;BME280;19141;48.980;8.410;2023-03-01T15:36:47;100553.31;;;7.83;46.33
32789;BME280;19141;48.980;8.410;2023-03-01T15:39:31;100549.13;;;7.80;46.71
32789;BME280;19141;48.980;8.410;2023-03-01T15:42:47;100547.03;;;7.56;46.84
32789;BME280;19141;48.980;8.410;2023-03-01T15:44:48;100556.34;;;7.60;46.96
32789;BME280;19141;48.980;8.410;2023-03-01T15:47:31;100539.16;;;7.37;47.17
32789;BME280;19141;48.980;8.410;2023-03-01T15:49:59;100540.25;;;7.44;47.26
32789;BME280;19141;48.980;8.410;2023-03-01T15:52:28;100547.88;;;7.57;47.18
32789;BME280;19141;48.980;8.410;2023-03-01T15:54:59;100547.81;;;7.67;47.23
32789;BME280;19141;48.980;8.410;2023-03-01T15:57:25;100551.00;;;7.70;47.04
32789;BME280;19141;48.980;8.410;2023-03-01T15:59:51;100560.81;;;7.60;47.36
32789;BME280;19141;48.980;8.410;2023-03-01T16:02:17;100534.47;;;7.49;46.97
32789;BME280;19141;48.980;8.410;2023-03-01T16:04:46;100541.06;;;7.45;47.40
32789;BME280;19141;48.980;8.410;2023-03-01T16:07:12;100543.56;;;7.46;47.31
32789;BME280;19141;48.980;8.410;2023-03-01T16:09:37;100541.75;;;7.47;47.30
32789;BME280;19141;48.980;8.410;2023-03-01T16:12:02;100537.34;;;7.38;47.42
32789;BME280;19141;48.980;8.410;2023-03-01T16:14:28;100531.88;;;7.39;47.66
32789;BME280;19141;48.980;8.410;2023-03-01T16:16:53;100527.06;;;7.25;47.87
32789;BME280;19141;48.980;8.410;2023-03-01T16:19:19;100532.22;;;7.26;48.22
32789;BME280;19141;48.980;8.410;2023-03-01T16:21:45;100536.13;;;7.22;48.30
32789;BME280;19141;48.980;8.410;2023-03-01T16:24:12;100533.94;;;7.18;48.32
32789;BME280;19141;48.980;8.410;2023-03-01T16:26:38;100529.06;;;7.13;48.20
32789;BME280;19141;48.980;8.410;2023-03-01T16:29:03;100516.66;;;7.04;48.63
32789;BME280;19141;48.980;8.410;2023-03-01T16:31:29;100515.69;;;7.05;48.45
32789;BME280;19141;48.980;8.410;2023-03-01T16:33:55;100508.44;;;7.07;48.62
32789;BME280;19141;48.980;8.410;2023-03-01T16:36:23;100510.72;;;6.92;49.24
32789;BME280;19141;48.980;8.410;2023-03-01T16:38:50;100516.84;;;6.93;49.24
32789;BME280;19141;48.980;8.410;2023-03-01T16:41:18;100512.91;;;6.97;48.95
32789;BME280;19141;48.980;8.410;2023-03-01T16:43:44;100513.88;;;6.96;48.66
32789;BME280;19141;48.980;8.410;2023-03-01T16:46:23;100518.38;;;6.86;49.14
32789;BME280;19141;48.980;8.410;2023-03-01T16:48:49;100512.13;;;6.77;49.56
32789;BME280;19141;48.980;8.410;2023-03-01T16:51:15;100511.53;;;6.83;49.17
32789;BME280;19141;48.980;8.410;2023-03-01T16:53:41;100519.94;;;6.78;49.38
32789;BME280;19141;48.980;8.410;2023-03-01T16:56:09;100521.34;;;6.73;49.31
32789;BME280;19141;48.980;8.410;2023-03-01T16:58:36;100522.06;;;6.65;49.64
32789;BME280;19141;48.980;8.410;2023-03-01T17:01:09;100527.72;;;6.70;49.40
32789;BME280;19141;48.980;8.410;2023-03-01T17:03:36;100524.97;;;6.62;49.47
32789;BME280;19141;48.980;8.410;2023-03-01T17:06:08;100531.09;;;6.63;49.83
32789;BME280;19141;48.980;8.410;2023-03-01T17:08:35;100529.97;;;6.56;50.00
32789;BME280;19141;48.980;8.410;2023-03-01T17:11:09;100522.19;;;6.54;50.05
32789;BME280;19141;48.980;8.410;2023-03-01T17:13:36;100524.97;;;6.43;50.43
32789;BME280;19141;48.980;8.410;2023-03-01T17:16:08;100524.72;;;6.46;50.38
32789;BME280;19141;48.980;8.410;2023-03-01T17:18:34;100517.75;;;6.35;50.42
32789;BME280;19141;48.980;8.410;2023-03-01T17:20:59;100536.53;;;6.42;50.76
32789;BME280;19141;48.980;8.410;2023-03-01T17:23:26;100531.13;;;6.34;51.47
32789;BME280;19141;48.980;8.410;2023-03-01T17:25:52;100531.66;;;6.28;51.62
32789;BME280;19141;48.980;8.410;2023-03-01T17:28:20;100531.38;;;6.21;51.52
32789;BME280;19141;48.980;8.410;2023-03-01T17:30:46;100535.41;;;6.15;51.59
32789;BME280;19141;48.980;8.410;2023-03-01T17:33:12;100538.59;;;6.09;51.47
32789;BME280;19141;48.980;8.410;2023-03-01T17:35:38;100533.44;;;5.98;51.67
32789;BME280;19141;48.980;8.410;2023-03-01T17:38:04;100542.47;;;5.95;52.12
32789;BME280;19141;48.980;8.410;2023-03-01T17:40:30;100539.97;;;5.94;51.95
32789;BME280;19141;48.980;8.410;2023-03-01T17:42:57;100536.50;;;5.93;52.42
32789;BME280;19141;48.980;8.410;2023-03-01T17:45:22;100546.22;;;5.93;51.96
32789;BME280;19141;48.980;8.410;2023-03-01T17:47:47;100541.31;;;5.88;52.14
32789;BME280;19141;48.980;8.410;2023-03-01T17:50:13;100541.03;;;5.82;52.22
32789;BME280;19141;48.980;8.410;2023-03-01T17:52:39;100553.13;;;5.84;52.62
32789;BME280;19141;48.980;8.410;2023-03-01T17:55:06;100554.09;;;5.83;52.62
32789;BME280;19141;48.980;8.410;2023-03-01T17:57:32;100554.50;;;5.79;52.94
32789;BME280;19141;48.980;8.410;2023-03-01T17:59:58;100563.94;;;5.71;52.98
32789;BME280;19141;48.980;8.410;2023-03-01T18:02:23;100566.03;;;5.68;53.24
32789;BME280;19141;48.980;8.410;2023-03-01T18:04:51;100563.50;;;5.66;53.38
32789;BME280;19141;48.980;8.410;2023-03-01T18:07:18;100555.16;;;5.61;53.98
32789;BME280;19141;48.980;8.410;2023-03-01T18:09:44;100555.81;;;5.54;54.07
32789;BME280;19141;48.980;8.410;2023-03-01T18:12:09;100568.78;;;5.57;53.89
32789;BME280;19141;48.980;8.410;2023-03-01T18:14:35;100564.41;;;5.46;54.20
32789;BME280;19141;48.980;8.410;2023-03-01T18:17:01;100556.69;;;5.33;54.25
32789;BME280;19141;48.980;8.410;2023-03-01T18:19:30;100555.84;;;5.33;54.64
32789;BME280;19141;48.980;8.410;2023-03-01T18:21:55;100552.53;;;5.31;54.33
32789;BME280;19141;48.980;8.410;2023-03-01T18:24:21;100564.06;;;5.30;55.02
32789;BME280;19141;48.980;8.410;2023-03-01T18:26:46;100562.78;;;5.24;54.78
32789;BME280;19141;48.980;8.410;2023-03-01T18:29:11;100553.31;;;5.22;55.45
32789;BME280;19141;48.980;8.410;2023-03-01T18:31:37;100558.25;;;5.15;54.83
32789;BME280;19141;48.980;8.410;2023-03-01T18:34:02;100552.56;;;5.10;55.07
32789;BME280;19141;48.980;8.410;2023-03-01T18:36:31;100548.63;;;5.04;55.63
32789;BME280;19141;48.980;8.410;2023-03-01T18:38:57;100548.19;;;4.99;55.47
32789;BME280;19141;48.980;8.410;2023-03-01T18:41:24;100549.84;;;5.00;55.30
32789;BME280;19141;48.980;8.410;2023-03-01T18:43:51;100549.28;;;4.97;56.04
32789;BME280;19141;48.980;8.410;2023-03-01T18:46:17;100541.75;;;4.92;56.07
32789;BME280;19141;48.980;8.410;2023-03-01T18:48:45;100532.53;;;4.86;56.13
32789;BME280;19141;48.980;8.410;2023-03-01T18:51:16;100545.03;;;4.84;56.18
32789;BME280;19141;48.980;8.410;2023-03-01T18:53:42;100544.72;;;4.78;56.13
32789;BME280;19141;48.980;8.410;2023-03-01T18:56:08;100536.84;;;4.67;56.59
32789;BME280;19141;48.980;8.410;2023-03-01T18:58:34;100533.38;;;4.66;56.37
32789;BME280;19141;48.980;8.410;2023-03-01T19:00:59;100533.91;;;4.60;57.18
32789;BME280;19141;48.980;8.410;2023-03-01T19:03:29;100540.38;;;4.56;57.33
32789;BME280;19141;48.980;8.410;2023-03-01T19:05:56;100538.00;;;4.53;58.10
32789;BME280;19141;48.980;8.410;2023-03-01T19:08:21;100537.47;;;4.38;58.13
32789;BME280;19141;48.980;8.410;2023-03-01T19:10:57;100528.66;;;4.17;59.33
32789;BME280;19141;48.980;8.410;2023-03-01T19:13:22;100542.47;;;4.09;58.49
32789;BME280;19141;48.980;8.410;2023-03-01T19:15:48;100545.06;;;3.88;60.21
32789;BME280;19141;48.980;8.410;2023-03-01T19:18:13;100532.28;;;3.72;60.58
32789;BME280;19141;48.980;8.410;2023-03-01T19:20:39;100524.88;;;3.66;61.37
32789;BME280;19141;48.980;8.410;2023-03-01T19:23:04;100524.59;;;3.58;61.33
32789;BME280;19141;48.980;8.410;2023-03-01T19:25:29;100524.38;;;3.50;61.70
32789;BME280;19141;48.980;8.410;2023-03-01T19:27:55;100532.78;;;3.44;62.03
32789;BME280;19141;48.980;8.410;2023-03-01T19:30:20;100532.06;;;3.31;62.67
32789;BME280;19141;48.980;8.410;2023-03-01T19:32:47;100535.75;;;3.17;62.89
32789;BME280;19141;48.980;8.410;2023-03-01T19:35:12;100532.53;;;3.13;63.35
32789;BME280;19141;48.980;8.410;2023-03-01T19:37:38;100535.53;;;3.09;63.75
32789;BME280;19141;48.980;8.410;2023-03-01T19:40:04;100520.91;;;2.93;64.62
32789;BME280;19141;48.980;8.410;2023-03-01T19:42:29;100534.44;;;3.00;64.71
32789;BME280;19141;48.980;8.410;2023-03-01T19:44:55;100528.31;;;2.88;65.05
32789;BME280;19141;48.980;8.410;2023-03-01T19:47:20;100525.78;;;2.87;65.57
32789;BME280;19141;48.980;8.410;2023-03-01T19:49:46;100524.69;;;2.78;65.73
32789;BME280;19141;48.980;8.410;2023-03-01T19:52:11;100526.97;;;2.71;66.15
32789;BME280;19141;48.980;8.410;2023-03-01T19:54:36;100528.63;;;2.72;66.59
32789;BME280;19141;48.980;8.410;2023-03-01T19:57:02;100531.50;;;2.69;67.68
32789;BME280;19141;48.980;8.410;2023-03-01T19:59:27;100529.00;;;2.68;67.45
32789;BME280;19141;48.980;8.410;2023-03-01T20:01:53;100540.34;;;2.68;67.66
32789;BME280;19141;48.980;8.410;2023-03-01T20:04:20;100538.09;;;2.75;67.46
32789;BME280;19141;48.980;8.410;2023-03-01T20:06:46;100543.63;;;2.83;66.75
32789;BME280;19141;48.980;8.410;2023-03-01T20:09:12;100543.16;;;2.89;66.65
32789;BME280;19141;48.980;8.410;2023-03-01T20:11:38;100527.38;;;2.89;66.20